Pearl, Vermont
Current Conditions -  °F | °C
As of 5:30 AM on Friday 24 Oct 2014 (Local Time) from KPBG Reporting Station
Haze Haze  
Wind Chill: 35°   Ceiling: 1300
Heat Index: 42°   Visibility: 5mi
Dew Point: 40°   Wind: 13mph
Humidity: 92%   Direction: 340°NNW
Pressure: 29.87"   Gusts: NA
Location:  44.717°N, 73.3067°W
Report Text: KPBG 240930Z AUTO 34011KT 5SM BR BKN013 OVC018 06/04 A2987 RMK AO2 RAE04 P0000 T00560044
Loading
Personal Weather Stations






























Interactive Weather Map
Tropical Storm Tracking
New forecast layout! Learn more

10-Day Weather Forecast

Advertisements
Track Severe Weather on mobile